sensor_id;sensor_type;location;lat;lon;timestamp;pressure;altitude;pressure_sealevel;temperature;humidity
71735;BME280;59577;52.122;5.406;2024-01-15T00:02:00;100420.41;;;0.66;100.00
71735;BME280;59577;52.122;5.406;2024-01-15T00:04:26;100421.00;;;0.63;100.00
71735;BME280;59577;52.122;5.406;2024-01-15T00:06:53;100416.25;;;0.60;100.00
71735;BME280;59577;52.122;5.406;2024-01-15T00:09:20;100415.28;;;0.56;100.00
71735;BME280;59577;52.122;5.406;2024-01-15T00:11:46;100412.41;;;0.52;100.00
71735;BME280;59577;52.122;5.406;2024-01-15T00:14:13;100407.16;;;0.47;100.00
71735;BME280;59577;52.122;5.406;2024-01-15T00:16:41;100405.09;;;0.44;100.00
71735;BME280;59577;52.122;5.406;2024-01-15T00:19:08;100399.97;;;0.48;100.00
71735;BME280;59577;52.122;5.406;2024-01-15T00:21:34;100409.06;;;0.47;100.00
71735;BME280;59577;52.122;5.406;2024-01-15T00:24:01;100400.25;;;0.46;100.00
71735;BME280;59577;52.122;5.406;2024-01-15T00:26:28;100401.34;;;0.45;100.00
71735;BME280;59577;52.122;5.406;2024-01-15T00:28:54;100390.19;;;0.43;100.00
71735;BME280;59577;52.122;5.406;2024-01-15T00:31:21;100387.03;;;0.41;100.00
71735;BME280;59577;52.122;5.406;2024-01-15T00:33:47;100381.81;;;0.36;100.00
71735;BME280;59577;52.122;5.406;2024-01-15T00:36:14;100387.72;;;0.33;100.00
71735;BME280;59577;52.122;5.406;2024-01-15T00:38:46;100384.56;;;0.31;100.00
71735;BME280;59577;52.122;5.406;2024-01-15T00:41:14;100383.56;;;0.27;100.00
71735;BME280;59577;52.122;5.406;2024-01-15T00:43:40;100372.44;;;0.25;100.00
71735;BME280;59577;52.122;5.406;2024-01-15T00:46:07;100371.94;;;0.23;100.00
71735;BME280;59577;52.122;5.406;2024-01-15T00:48:34;100367.69;;;0.22;100.00
71735;BME280;59577;52.122;5.406;2024-01-15T00:51:01;100366.09;;;0.21;100.00
71735;BME280;59577;52.122;5.406;2024-01-15T00:53:28;100360.28;;;0.18;100.00
71735;BME280;59577;52.122;5.406;2024-01-15T00:55:54;100359.00;;;0.16;100.00
71735;BME280;59577;52.122;5.406;2024-01-15T00:58:21;100363.03;;;0.13;100.00
71735;BME280;59577;52.122;5.406;2024-01-15T01:00:47;100359.59;;;0.13;100.00
71735;BME280;59577;52.122;5.406;2024-01-15T01:03:14;100367.88;;;0.11;100.00
71735;BME280;59577;52.122;5.406;2024-01-15T01:05:40;100363.63;;;0.10;100.00
71735;BME280;59577;52.122;5.406;2024-01-15T01:08:07;100355.94;;;0.09;100.00
71735;BME280;59577;52.122;5.406;2024-01-15T01:10:33;100356.25;;;0.07;100.00
71735;BME280;59577;52.122;5.406;2024-01-15T01:13:00;100351.22;;;0.06;100.00
71735;BME280;59577;52.122;5.406;2024-01-15T01:15:26;100359.97;;;0.06;100.00
71735;BME280;59577;52.122;5.406;2024-01-15T01:17:53;100342.13;;;0.07;100.00
71735;BME280;59577;52.122;5.406;2024-01-15T01:20:20;100343.22;;;0.06;100.00
71735;BME280;59577;52.122;5.406;2024-01-15T01:22:47;100343.50;;;0.04;100.00
71735;BME280;59577;52.122;5.406;2024-01-15T01:25:13;100341.63;;;0.05;100.00
71735;BME280;59577;52.122;5.406;2024-01-15T01:27:40;100334.44;;;0.05;100.00
71735;BME280;59577;52.122;5.406;2024-01-15T01:30:07;100341.63;;;0.05;100.00
71735;BME280;59577;52.122;5.406;2024-01-15T01:32:33;100352.56;;;0.03;100.00
71735;BME280;59577;52.122;5.406;2024-01-15T01:35:00;100352.56;;;0.03;100.00
71735;BME280;59577;52.122;5.406;2024-01-15T01:37:27;100353.38;;;0.04;100.00
71735;BME280;59577;52.122;5.406;2024-01-15T01:39:53;100354.16;;;0.04;100.00
71735;BME280;59577;52.122;5.406;2024-01-15T01:42:20;100360.53;;;0.03;100.00
71735;BME280;59577;52.122;5.406;2024-01-15T01:44:46;100345.97;;;0.01;100.00
71735;BME280;59577;52.122;5.406;2024-01-15T01:47:13;100344.09;;;0.01;100.00
71735;BME280;59577;52.122;5.406;2024-01-15T01:49:41;100353.66;;;0.02;100.00
71735;BME280;59577;52.122;5.406;2024-01-15T01:52:08;100348.63;;;0.01;100.00
71735;BME280;59577;52.122;5.406;2024-01-15T01:54:36;100343.59;;;-0.01;100.00
71735;BME280;59577;52.122;5.406;2024-01-15T01:57:05;100348.63;;;0.01;100.00
71735;BME280;59577;52.122;5.406;2024-01-15T01:59:34;100349.69;;;-0.01;100.00
71735;BME280;59577;52.122;5.406;2024-01-15T02:02:03;100341.91;;;0.03;100.00
71735;BME280;59577;52.122;5.406;2024-01-15T02:04:31;100352.97;;;0.10;100.00
71735;BME280;59577;52.122;5.406;2024-01-15T02:06:59;100343.34;;;0.14;100.00
71735;BME280;59577;52.122;5.406;2024-01-15T02:09:28;100350.31;;;0.24;100.00
71735;BME280;59577;52.122;5.406;2024-01-15T02:11:55;100360.00;;;0.34;100.00
71735;BME280;59577;52.122;5.406;2024-01-15T02:14:21;100368.88;;;0.43;100.00
71735;BME280;59577;52.122;5.406;2024-01-15T02:16:48;100378.84;;;0.51;100.00
71735;BME280;59577;52.122;5.406;2024-01-15T02:19:18;100367.53;;;0.60;100.00
71735;BME280;59577;52.122;5.406;2024-01-15T02:21:45;100362.09;;;0.65;100.00
71735;BME280;59577;52.122;5.406;2024-01-15T02:24:11;100362.88;;;0.65;100.00
71735;BME280;59577;52.122;5.406;2024-01-15T02:26:38;100351.16;;;0.66;100.00
71735;BME280;59577;52.122;5.406;2024-01-15T02:29:07;100357.06;;;0.63;100.00
71735;BME280;59577;52.122;5.406;2024-01-15T02:31:36;100356.88;;;0.60;100.00
71735;BME280;59577;52.122;5.406;2024-01-15T02:34:03;100349.19;;;0.58;100.00
71735;BME280;59577;52.122;5.406;2024-01-15T02:36:30;100351.56;;;0.60;100.00
71735;BME280;59577;52.122;5.406;2024-01-15T02:38:57;100357.16;;;0.58;100.00
71735;BME280;59577;52.122;5.406;2024-01-15T02:41:23;100350.06;;;0.53;100.00
71735;BME280;59577;52.122;5.406;2024-01-15T02:43:50;100356.97;;;0.54;100.00
71735;BME280;59577;52.122;5.406;2024-01-15T02:46:16;100345.25;;;0.55;100.00
71735;BME280;59577;52.122;5.406;2024-01-15T02:48:43;100339.13;;;0.55;100.00
71735;BME280;59577;52.122;5.406;2024-01-15T02:51:10;100343.66;;;0.54;100.00
71735;BME280;59577;52.122;5.406;2024-01-15T02:53:36;100337.56;;;0.54;100.00
71735;BME280;59577;52.122;5.406;2024-01-15T02:56:04;100338.81;;;0.56;100.00
71735;BME280;59577;52.122;5.406;2024-01-15T02:58:30;100340.91;;;0.60;100.00
71735;BME280;59577;52.122;5.406;2024-01-15T03:00:57;100343.75;;;0.63;100.00
71735;BME280;59577;52.122;5.406;2024-01-15T03:03:24;100335.19;;;0.66;100.00
71735;BME280;59577;52.122;5.406;2024-01-15T03:05:51;100333.59;;;0.65;100.00
71735;BME280;59577;52.122;5.406;2024-01-15T03:08:17;100337.94;;;0.61;100.00
71735;BME280;59577;52.122;5.406;2024-01-15T03:10:44;100332.44;;;0.58;100.00
71735;BME280;59577;52.122;5.406;2024-01-15T03:13:11;100334.09;;;0.53;100.00
71735;BME280;59577;52.122;5.406;2024-01-15T03:15:37;100334.19;;;0.48;100.00
71735;BME280;59577;52.122;5.406;2024-01-15T03:18:04;100329.19;;;0.47;100.00
71735;BME280;59577;52.122;5.406;2024-01-15T03:20:32;100327.88;;;0.44;100.00
71735;BME280;59577;52.122;5.406;2024-01-15T03:22:59;100333.00;;;0.41;100.00
71735;BME280;59577;52.122;5.406;2024-01-15T03:25:26;100325.91;;;0.36;100.00
71735;BME280;59577;52.122;5.406;2024-01-15T03:27:52;100329.47;;;0.31;100.00
71735;BME280;59577;52.122;5.406;2024-01-15T03:30:19;100328.94;;;0.29;100.00
71735;BME280;59577;52.122;5.406;2024-01-15T03:32:46;100335.06;;;0.30;100.00
71735;BME280;59577;52.122;5.406;2024-01-15T03:35:13;100328.94;;;0.29;100.00
71735;BME280;59577;52.122;5.406;2024-01-15T03:37:40;100333.97;;;0.31;100.00
71735;BME280;59577;52.122;5.406;2024-01-15T03:40:07;100328.06;;;0.34;100.00
71735;BME280;59577;52.122;5.406;2024-01-15T03:42:34;100341.28;;;0.39;100.00
71735;BME280;59577;52.122;5.406;2024-01-15T03:45:01;100349.47;;;0.43;100.00
71735;BME280;59577;52.122;5.406;2024-01-15T03:47:28;100362.41;;;0.49;100.00
71735;BME280;59577;52.122;5.406;2024-01-15T03:49:54;100349.00;;;0.54;100.00
71735;BME280;59577;52.122;5.406;2024-01-15T03:52:21;100345.44;;;0.59;100.00
71735;BME280;59577;52.122;5.406;2024-01-15T03:54:47;100335.75;;;0.63;100.00
71735;BME280;59577;52.122;5.406;2024-01-15T03:57:14;100317.91;;;0.64;100.00
71735;BME280;59577;52.122;5.406;2024-01-15T03:59:41;100312.38;;;0.60;100.00
71735;BME280;59577;52.122;5.406;2024-01-15T04:02:08;100302.03;;;0.59;100.00
71735;BME280;59577;52.122;5.406;2024-01-15T04:04:34;100294.75;;;0.50;100.00
71735;BME280;59577;52.122;5.406;2024-01-15T04:07:01;100304.69;;;0.45;100.00
71735;BME280;59577;52.122;5.406;2024-01-15T04:09:28;100302.94;;;0.40;100.00
71735;BME280;59577;52.122;5.406;2024-01-15T04:11:54;100296.13;;;0.34;100.00
71735;BME280;59577;52.122;5.406;2024-01-15T04:14:21;100289.81;;;0.30;100.00
71735;BME280;59577;52.122;5.406;2024-01-15T04:16:47;100289.94;;;0.25;100.00
71735;BME280;59577;52.122;5.406;2024-01-15T04:19:14;100291.00;;;0.24;100.00
71735;BME280;59577;52.122;5.406;2024-01-15T04:21:40;100291.88;;;0.19;100.00
71735;BME280;59577;52.122;5.406;2024-01-15T04:24:07;100293.56;;;0.15;100.00
71735;BME280;59577;52.122;5.406;2024-01-15T04:26:34;100288.03;;;0.11;100.00
71735;BME280;59577;52.122;5.406;2024-01-15T04:29:01;100275.03;;;0.10;100.00
71735;BME280;59577;52.122;5.406;2024-01-15T04:31:28;100289.44;;;0.09;100.00
71735;BME280;59577;52.122;5.406;2024-01-15T04:33:54;100288.63;;;0.08;100.00
71735;BME280;59577;52.122;5.406;2024-01-15T04:36:21;100281.72;;;0.07;100.00
71735;BME280;59577;52.122;5.406;2024-01-15T04:38:48;100276.41;;;0.07;100.00
71735;BME280;59577;52.122;5.406;2024-01-15T04:41:16;100271.38;;;0.06;100.00
71735;BME280;59577;52.122;5.406;2024-01-15T04:43:43;100274.03;;;0.06;100.00
71735;BME280;59577;52.122;5.406;2024-01-15T04:46:09;100271.38;;;0.06;100.00
71735;BME280;59577;52.122;5.406;2024-01-15T04:48:36;100264.97;;;0.07;100.00
71735;BME280;59577;52.122;5.406;2024-01-15T04:51:08;100258.09;;;0.06;100.00
71735;BME280;59577;52.122;5.406;2024-01-15T04:53:35;100255.13;;;0.07;100.00
71735;BME280;59577;52.122;5.406;2024-01-15T04:56:02;100257.19;;;0.10;100.00
71735;BME280;59577;52.122;5.406;2024-01-15T04:58:28;100266.16;;;0.14;100.00
71735;BME280;59577;52.122;5.406;2024-01-15T05:00:55;100257.59;;;0.17;100.00
71735;BME280;59577;52.122;5.406;2024-01-15T05:03:22;100264.88;;;0.26;100.00
71735;BME280;59577;52.122;5.406;2024-01-15T05:05:49;100266.47;;;0.27;100.00
71735;BME280;59577;52.122;5.406;2024-01-15T05:08:16;100264.28;;;0.29;100.00
71735;BME280;59577;52.122;5.406;2024-01-15T05:10:42;100258.97;;;0.29;100.00
71735;BME280;59577;52.122;5.406;2024-01-15T05:13:09;100250.97;;;0.29;100.00
71735;BME280;59577;52.122;5.406;2024-01-15T05:15:36;100257.69;;;0.26;100.00
71735;BME280;59577;52.122;5.406;2024-01-15T05:18:02;100246.75;;;0.28;100.00
71735;BME280;59577;52.122;5.406;2024-01-15T05:20:29;100241.44;;;0.28;100.00
71735;BME280;59577;52.122;5.406;2024-01-15T05:22:55;100246.13;;;0.31;100.00
71735;BME280;59577;52.122;5.406;2024-01-15T05:25:22;100249.59;;;0.31;100.00
71735;BME280;59577;52.122;5.406;2024-01-15T05:27:49;100245.06;;;0.32;100.00
71735;BME280;59577;52.122;5.406;2024-01-15T05:30:15;100250.38;;;0.32;100.00
71735;BME280;59577;52.122;5.406;2024-01-15T05:32:43;100245.06;;;0.32;100.00
71735;BME280;59577;52.122;5.406;2024-01-15T05:35:09;100247.72;;;0.32;100.00
71735;BME280;59577;52.122;5.406;2024-01-15T05:37:36;100250.88;;;0.34;100.00
71735;BME280;59577;52.122;5.406;2024-01-15T05:40:02;100254.50;;;0.38;100.00
71735;BME280;59577;52.122;5.406;2024-01-15T05:42:31;100254.22;;;0.40;100.00
71735;BME280;59577;52.122;5.406;2024-01-15T05:44:58;100256.88;;;0.40;100.00
71735;BME280;59577;52.122;5.406;2024-01-15T05:47:26;100254.22;;;0.40;100.00
71735;BME280;59577;52.122;5.406;2024-01-15T05:49:52;100255.03;;;0.40;100.00
71735;BME280;59577;52.122;5.406;2024-01-15T05:52:19;100258.47;;;0.41;100.00
71735;BME280;59577;52.122;5.406;2024-01-15T05:54:47;100257.41;;;0.42;100.00
71735;BME280;59577;52.122;5.406;2024-01-15T05:57:14;100253.34;;;0.44;100.00
71735;BME280;59577;52.122;5.406;2024-01-15T05:59:40;100264.47;;;0.46;100.00
71735;BME280;59577;52.122;5.406;2024-01-15T06:02:07;100266.34;;;0.46;100.00
71735;BME280;59577;52.122;5.406;2024-01-15T06:04:33;100264.94;;;0.48;100.00
71735;BME280;59577;52.122;5.406;2024-01-15T06:07:00;100260.44;;;0.49;100.00
71735;BME280;59577;52.122;5.406;2024-01-15T06:09:27;100270.78;;;0.50;100.00
71735;BME280;59577;52.122;5.406;2024-01-15T06:11:55;100277.69;;;0.51;100.00
71735;BME280;59577;52.122;5.406;2024-01-15T06:14:21;100280.81;;;0.53;100.00
71735;BME280;59577;52.122;5.406;2024-01-15T06:16:48;100254.50;;;0.52;100.00
71735;BME280;59577;52.122;5.406;2024-01-15T06:19:15;100256.78;;;0.45;100.00
71735;BME280;59577;52.122;5.406;2024-01-15T06:21:42;100259.72;;;0.43;100.00
71735;BME280;59577;52.122;5.406;2024-01-15T06:24:08;100253.91;;;0.41;100.00
71735;BME280;59577;52.122;5.406;2024-01-15T06:26:36;100249.41;;;0.42;100.00
71735;BME280;59577;52.122;5.406;2024-01-15T06:29:03;100244.56;;;0.44;100.00
71735;BME280;59577;52.122;5.406;2024-01-15T06:31:30;100251.97;;;0.47;100.00
71735;BME280;59577;52.122;5.406;2024-01-15T06:33:56;100250.09;;;0.47;100.00
71735;BME280;59577;52.122;5.406;2024-01-15T06:36:23;100254.13;;;0.45;100.00
71735;BME280;59577;52.122;5.406;2024-01-15T06:38:50;100243.47;;;0.45;100.00
71735;BME280;59577;52.122;5.406;2024-01-15T06:41:16;100251.16;;;0.46;100.00
71735;BME280;59577;52.122;5.406;2024-01-15T06:43:43;100243.47;;;0.45;100.00
71735;BME280;59577;52.122;5.406;2024-01-15T06:46:09;100242.19;;;0.42;100.00
71735;BME280;59577;52.122;5.406;2024-01-15T06:48:36;100233.72;;;0.40;100.00
71735;BME280;59577;52.122;5.406;2024-01-15T06:51:03;100240.41;;;0.37;100.00
71735;BME280;59577;52.122;5.406;2024-01-15T06:53:30;100244.00;;;0.33;100.00
71735;BME280;59577;52.122;5.406;2024-01-15T06:55:56;100237.09;;;0.32;100.00
71735;BME280;59577;52.122;5.406;2024-01-15T06:58:23;100234.41;;;0.32;100.00
71735;BME280;59577;52.122;5.406;2024-01-15T07:00:49;100229.38;;;0.30;100.00
71735;BME280;59577;52.122;5.406;2024-01-15T07:03:16;100229.69;;;0.29;100.00
71735;BME280;59577;52.122;5.406;2024-01-15T07:05:43;100226.53;;;0.27;100.00
71735;BME280;59577;52.122;5.406;2024-01-15T07:08:10;100219.91;;;0.24;100.00
71735;BME280;59577;52.122;5.406;2024-01-15T07:10:36;100227.41;;;0.22;100.00
71735;BME280;59577;52.122;5.406;2024-01-15T07:13:03;100226.63;;;0.22;100.00
71735;BME280;59577;52.122;5.406;2024-01-15T07:15:31;100229.78;;;0.24;100.00
71735;BME280;59577;52.122;5.406;2024-01-15T07:17:58;100239.06;;;0.26;100.00
71735;BME280;59577;52.122;5.406;2024-01-15T07:20:25;100263.69;;;0.32;100.00
71735;BME280;59577;52.122;5.406;2024-01-15T07:22:51;100272.38;;;0.37;100.00
71735;BME280;59577;52.122;5.406;2024-01-15T07:25:18;100278.97;;;0.40;100.00
71735;BME280;59577;52.122;5.406;2024-01-15T07:27:44;100273.38;;;0.42;100.00
71735;BME280;59577;52.122;5.406;2024-01-15T07:30:13;100253.91;;;0.41;100.00
71735;BME280;59577;52.122;5.406;2024-01-15T07:32:40;100252.66;;;0.39;100.00
71735;BME280;59577;52.122;5.406;2024-01-15T07:35:07;100251.84;;;0.38;100.00
71735;BME280;59577;52.122;5.406;2024-01-15T07:37:33;100250.78;;;0.39;100.00
71735;BME280;59577;52.122;5.406;2024-01-15T07:40:00;100243.38;;;0.36;100.00
71735;BME280;59577;52.122;5.406;2024-01-15T07:42:27;100244.78;;;0.33;100.00
71735;BME280;59577;52.122;5.406;2024-01-15T07:44:54;100237.84;;;0.32;100.00
71735;BME280;59577;52.122;5.406;2024-01-15T07:47:20;100239.75;;;0.32;100.00
71735;BME280;59577;52.122;5.406;2024-01-15T07:49:47;100249.31;;;0.33;100.00
71735;BME280;59577;52.122;5.406;2024-01-15T07:52:14;100270.28;;;0.34;100.00
71735;BME280;59577;52.122;5.406;2024-01-15T07:54:40;100270.00;;;0.36;100.00
71735;BME280;59577;52.122;5.406;2024-01-15T07:57:07;100257.78;;;0.35;100.00
71735;BME280;59577;52.122;5.406;2024-01-15T07:59:35;100259.16;;;0.32;100.00
71735;BME280;59577;52.122;5.406;2024-01-15T08:02:02;100260.56;;;0.30;100.00
71735;BME280;59577;52.122;5.406;2024-01-15T08:04:28;100265.88;;;0.30;100.00
71735;BME280;59577;52.122;5.406;2024-01-15T08:06:55;100260.56;;;0.30;100.00
71735;BME280;59577;52.122;5.406;2024-01-15T08:09:23;100263.69;;;0.32;100.00
71735;BME280;59577;52.122;5.406;2024-01-15T08:11:50;100250.09;;;0.33;100.00
71735;BME280;59577;52.122;5.406;2024-01-15T08:14:17;100244.78;;;0.33;100.00
71735;BME280;59577;52.122;5.406;2024-01-15T08:16:44;100236.50;;;0.35;100.00
71735;BME280;59577;52.122;5.406;2024-01-15T08:19:10;100240.72;;;0.36;100.00
71735;BME280;59577;52.122;5.406;2024-01-15T08:21:38;100238.84;;;0.36;100.00
71735;BME280;59577;52.122;5.406;2024-01-15T08:24:05;100249.50;;;0.36;100.00
71735;BME280;59577;52.122;5.406;2024-01-15T08:26:32;100259.34;;;0.36;100.00
71735;BME280;59577;52.122;5.406;2024-01-15T08:28:59;100252.16;;;0.36;100.00
71735;BME280;59577;52.122;5.406;2024-01-15T08:31:25;100260.16;;;0.36;100.00
71735;BME280;59577;52.122;5.406;2024-01-15T08:33:52;100268.34;;;0.40;100.00
71735;BME280;59577;52.122;5.406;2024-01-15T08:36:19;100264.38;;;0.37;100.00
71735;BME280;59577;52.122;5.406;2024-01-15T08:38:46;100259.34;;;0.36;100.00
71735;BME280;59577;52.122;5.406;2024-01-15T08:41:13;100256.41;;;0.37;100.00
71735;BME280;59577;52.122;5.406;2024-01-15T08:43:40;100248.88;;;0.40;100.00
71735;BME280;59577;52.122;5.406;2024-01-15T08:46:06;100258.66;;;0.44;100.00
71735;BME280;59577;52.122;5.406;2024-01-15T08:48:33;100253.53;;;0.48;100.00
71735;BME280;59577;52.122;5.406;2024-01-15T08:51:00;100255.09;;;0.63;100.00
71735;BME280;59577;52.122;5.406;2024-01-15T08:53:27;100249.16;;;0.80;100.00
71735;BME280;59577;52.122;5.406;2024-01-15T08:55:54;100248.88;;;0.90;100.00
71735;BME280;59577;52.122;5.406;2024-01-15T08:58:21;100245.03;;;0.96;100.00
71735;BME280;59577;52.122;5.406;2024-01-15T09:00:47;100257.56;;;0.96;100.00
71735;BME280;59577;52.122;5.406;2024-01-15T09:03:14;100265.09;;;0.93;100.00
71735;BME280;59577;52.122;5.406;2024-01-15T09:05:41;100266.16;;;0.92;100.00
71735;BME280;59577;52.122;5.406;2024-01-15T09:08:08;100271.00;;;0.90;100.00
71735;BME280;59577;52.122;5.406;2024-01-15T09:10:34;100273.28;;;0.97;100.00
71735;BME280;59577;52.122;5.406;2024-01-15T09:13:01;100284.13;;;1.01;100.00
71735;BME280;59577;52.122;5.406;2024-01-15T09:15:30;100293.78;;;0.97;100.00
71735;BME280;59577;52.122;5.406;2024-01-15T09:17:56;100274.28;;;0.87;100.00
71735;BME280;59577;52.122;5.406;2024-01-15T09:20:25;100267.16;;;0.83;100.00
71735;BME280;59577;52.122;5.406;2024-01-15T09:22:53;100264.81;;;0.81;100.00
71735;BME280;59577;52.122;5.406;2024-01-15T09:25:20;100264.81;;;0.81;100.00
71735;BME280;59577;52.122;5.406;2024-01-15T09:27:46;100258.09;;;0.84;100.00
71735;BME280;59577;52.122;5.406;2024-01-15T09:30:13;100266.38;;;0.82;100.00
71735;BME280;59577;52.122;5.406;2024-01-15T09:32:40;100269.06;;;0.82;100.00
71735;BME280;59577;52.122;5.406;2024-01-15T09:35:07;100274.69;;;0.81;100.00
71735;BME280;59577;52.122;5.406;2024-01-15T09:37:34;100267.78;;;0.80;100.00
71735;BME280;59577;52.122;5.406;2024-01-15T09:40:14;100264.81;;;0.81;100.00
71735;BME280;59577;52.122;5.406;2024-01-15T09:42:44;100267.25;;;0.91;100.00
71735;BME280;59577;52.122;5.406;2024-01-15T09:45:12;100264.19;;;1.21;100.00
71735;BME280;59577;52.122;5.406;2024-01-15T09:47:40;100272.25;;;1.29;100.00
71735;BME280;59577;52.122;5.406;2024-01-15T09:50:11;100266.06;;;1.20;100.00
71735;BME280;59577;52.122;5.406;2024-01-15T09:52:39;100264.59;;;1.14;100.00
71735;BME280;59577;52.122;5.406;2024-01-15T09:55:08;100250.91;;;1.07;100.00
71735;BME280;59577;52.122;5.406;2024-01-15T09:57:36;100261.09;;;1.05;100.00
71735;BME280;59577;52.122;5.406;2024-01-15T10:00:04;100264.34;;;1.02;100.00
71735;BME280;59577;52.122;5.406;2024-01-15T10:02:33;100279.38;;;0.98;100.00
71735;BME280;59577;52.122;5.406;2024-01-15T10:05:02;100277.31;;;0.94;100.00
71735;BME280;59577;52.122;5.406;2024-01-15T10:07:29;100277.00;;;0.96;100.00
71735;BME280;59577;52.122;5.406;2024-01-15T10:09:57;100279.94;;;1.31;100.00
71735;BME280;59577;52.122;5.406;2024-01-15T10:12:24;100278.06;;;2.74;100.00
71735;BME280;59577;52.122;5.406;2024-01-15T10:14:51;100274.31;;;2.84;100.00
71735;BME280;59577;52.122;5.406;2024-01-15T10:17:17;100260.16;;;2.17;100.00
71735;BME280;59577;52.122;5.406;2024-01-15T10:19:47;100250.75;;;1.80;100.00
71735;BME280;59577;52.122;5.406;2024-01-15T10:22:16;100270.88;;;1.86;100.00
71735;BME280;59577;52.122;5.406;2024-01-15T10:24:44;100271.31;;;2.19;100.00
71735;BME280;59577;52.122;5.406;2024-01-15T10:27:12;100284.41;;;2.30;100.00
71735;BME280;59577;52.122;5.406;2024-01-15T10:29:41;100290.25;;;2.00;100.00
71735;BME280;59577;52.122;5.406;2024-01-15T10:32:08;100284.44;;;1.67;100.00
71735;BME280;59577;52.122;5.406;2024-01-15T10:34:39;100287.59;;;1.46;100.00
71735;BME280;59577;52.122;5.406;2024-01-15T10:37:08;100285.94;;;1.37;100.00
71735;BME280;59577;52.122;5.406;2024-01-15T10:39:35;100285.69;;;1.24;100.00
71735;BME280;59577;52.122;5.406;2024-01-15T10:42:03;100267.66;;;1.21;100.00
71735;BME280;59577;52.122;5.406;2024-01-15T10:44:30;100270.63;;;1.42;100.00
71735;BME280;59577;52.122;5.406;2024-01-15T10:46:57;100273.06;;;2.99;100.00
71735;BME280;59577;52.122;5.406;2024-01-15T10:49:24;100267.97;;;4.74;100.00
71735;BME280;59577;52.122;5.406;2024-01-15T10:51:59;100265.31;;;4.65;100.00
71735;BME280;59577;52.122;5.406;2024-01-15T10:54:27;100269.97;;;3.88;100.00
71735;BME280;59577;52.122;5.406;2024-01-15T10:56:56;100274.13;;;4.45;100.00
71735;BME280;59577;52.122;5.406;2024-01-15T10:59:23;100269.97;;;4.26;100.00
71735;BME280;59577;52.122;5.406;2024-01-15T11:01:50;100278.22;;;3.65;100.00
71735;BME280;59577;52.122;5.406;2024-01-15T11:04:21;100291.16;;;3.19;100.00
71735;BME280;59577;52.122;5.406;2024-01-15T11:06:51;100286.41;;;2.90;100.00
71735;BME280;59577;52.122;5.406;2024-01-15T11:09:19;100290.97;;;2.81;100.00
71735;BME280;59577;52.122;5.406;2024-01-15T11:11:46;100300.09;;;2.97;100.00
71735;BME280;59577;52.122;5.406;2024-01-15T11:17:01;100305.69;;;2.52;100.00
71735;BME280;59577;52.122;5.406;2024-01-15T11:19:55;100304.69;;;2.39;100.00
71735;BME280;59577;52.122;5.406;2024-01-15T11:25:02;100306.69;;;2.25;100.00
71735;BME280;59577;52.122;5.406;2024-01-15T11:27:46;100308.06;;;2.14;100.00
71735;BME280;59577;52.122;5.406;2024-01-15T11:30:14;100307.88;;;2.10;100.00
71735;BME280;59577;52.122;5.406;2024-01-15T11:32:41;100298.97;;;2.15;100.00
71735;BME280;59577;52.122;5.406;2024-01-15T11:35:09;100299.09;;;2.50;100.00
71735;BME280;59577;52.122;5.406;2024-01-15T11:40:36;100290.06;;;4.41;100.00
71735;BME280;59577;52.122;5.406;2024-01-15T11:43:05;100300.28;;;3.45;100.00
71735;BME280;59577;52.122;5.406;2024-01-15T11:45:33;100307.84;;;3.43;100.00
71735;BME280;59577;52.122;5.406;2024-01-15T11:50:45;100309.25;;;3.23;100.00
71735;BME280;59577;52.122;5.406;2024-01-15T11:53:36;100310.16;;;3.00;100.00
71735;BME280;59577;52.122;5.406;2024-01-15T11:56:06;100312.38;;;2.90;100.00
71735;BME280;59577;52.122;5.406;2024-01-15T11:58:38;100311.28;;;2.91;100.00
71735;BME280;59577;52.122;5.406;2024-01-15T12:01:04;100310.16;;;2.83;100.00
71735;BME280;59577;52.122;5.406;2024-01-15T12:03:32;100312.94;;;2.69;100.00
71735;BME280;59577;52.122;5.406;2024-01-15T12:06:00;100297.91;;;2.99;100.00
71735;BME280;59577;52.122;5.406;2024-01-15T12:08:26;100308.31;;;3.18;100.00
71735;BME280;59577;52.122;5.406;2024-01-15T12:10:53;100310.16;;;2.92;100.00
71735;BME280;59577;52.122;5.406;2024-01-15T12:13:20;100321.44;;;2.71;100.00
71735;BME280;59577;52.122;5.406;2024-01-15T12:15:47;100322.50;;;2.53;100.00
71735;BME280;59577;52.122;5.406;2024-01-15T12:18:17;100332.69;;;2.51;100.00
71735;BME280;59577;52.122;5.406;2024-01-15T12:20:45;100327.66;;;2.49;100.00
71735;BME280;59577;52.122;5.406;2024-01-15T12:23:15;100340.38;;;2.43;100.00
71735;BME280;59577;52.122;5.406;2024-01-15T12:25:43;100341.09;;;2.26;100.00
71735;BME280;59577;52.122;5.406;2024-01-15T12:28:10;100346.66;;;2.07;100.00
71735;BME280;59577;52.122;5.406;2024-01-15T12:30:36;100345.72;;;2.12;100.00
71735;BME280;59577;52.122;5.406;2024-01-15T12:33:05;100343.75;;;2.26;100.00
71735;BME280;59577;52.122;5.406;2024-01-15T12:35:33;100354.94;;;2.29;100.00
71735;BME280;59577;52.122;5.406;2024-01-15T12:38:01;100363.84;;;2.24;100.00
71735;BME280;59577;52.122;5.406;2024-01-15T12:40:30;100370.38;;;2.09;100.00
71735;BME280;59577;52.122;5.406;2024-01-15T12:42:57;100372.50;;;1.98;100.00
71735;BME280;59577;52.122;5.406;2024-01-15T12:45:24;100372.56;;;1.84;100.00
71735;BME280;59577;52.122;5.406;2024-01-15T12:47:50;100372.63;;;1.71;100.00
71735;BME280;59577;52.122;5.406;2024-01-15T12:50:17;100365.97;;;1.59;100.00
71735;BME280;59577;52.122;5.406;2024-01-15T12:52:46;100362.63;;;1.54;100.00
71735;BME280;59577;52.122;5.406;2024-01-15T12:55:13;100369.53;;;1.55;100.00
71735;BME280;59577;52.122;5.406;2024-01-15T12:57:40;100356.38;;;1.58;100.00
71735;BME280;59577;52.122;5.406;2024-01-15T13:00:07;100351.41;;;1.65;100.00
71735;BME280;59577;52.122;5.406;2024-01-15T13:02:38;100359.91;;;1.67;100.00